sensor_id;sensor_type;location;lat;lon;timestamp;P1;durP1;ratioP1;P2;durP2;ratioP2
7831;SDS011;3961;42.058;25.586;2024-01-06T00:01:38;8.03;;;5.10;;
7831;SDS011;3961;42.058;25.586;2024-01-06T00:04:04;10.90;;;5.43;;
7831;SDS011;3961;42.058;25.586;2024-01-06T00:06:29;10.53;;;5.20;;
7831;SDS011;3961;42.058;25.586;2024-01-06T00:08:55;6.77;;;5.03;;
7831;SDS011;3961;42.058;25.586;2024-01-06T00:11:21;9.60;;;4.63;;
7831;SDS011;3961;42.058;25.586;2024-01-06T00:13:47;11.00;;;5.17;;
7831;SDS011;3961;42.058;25.586;2024-01-06T00:16:12;10.40;;;5.93;;
7831;SDS011;3961;42.058;25.586;2024-01-06T00:18:39;9.10;;;6.07;;
7831;SDS011;3961;42.058;25.586;2024-01-06T00:21:04;10.73;;;5.67;;
7831;SDS011;3961;42.058;25.586;2024-01-06T00:23:30;8.17;;;5.33;;
7831;SDS011;3961;42.058;25.586;2024-01-06T00:25:56;9.70;;;6.50;;
7831;SDS011;3961;42.058;25.586;2024-01-06T00:28:23;11.57;;;5.20;;
7831;SDS011;3961;42.058;25.586;2024-01-06T00:30:48;11.40;;;5.73;;
7831;SDS011;3961;42.058;25.586;2024-01-06T00:33:14;11.83;;;6.83;;
7831;SDS011;3961;42.058;25.586;2024-01-06T00:35:40;10.77;;;7.30;;
7831;SDS011;3961;42.058;25.586;2024-01-06T00:38:05;12.97;;;8.07;;
7831;SDS011;3961;42.058;25.586;2024-01-06T00:40:30;11.37;;;7.80;;
7831;SDS011;3961;42.058;25.586;2024-01-06T00:42:58;17.90;;;8.47;;
7831;SDS011;3961;42.058;25.586;2024-01-06T00:45:23;11.43;;;7.20;;
7831;SDS011;3961;42.058;25.586;2024-01-06T00:47:49;12.00;;;7.77;;
7831;SDS011;3961;42.058;25.586;2024-01-06T00:50:14;12.87;;;7.67;;
7831;SDS011;3961;42.058;25.586;2024-01-06T00:52:41;11.30;;;7.30;;
7831;SDS011;3961;42.058;25.586;2024-01-06T00:55:06;9.23;;;6.57;;
7831;SDS011;3961;42.058;25.586;2024-01-06T00:57:33;12.57;;;7.90;;
7831;SDS011;3961;42.058;25.586;2024-01-06T00:59:58;14.43;;;7.10;;
7831;SDS011;3961;42.058;25.586;2024-01-06T01:02:24;12.10;;;6.77;;
7831;SDS011;3961;42.058;25.586;2024-01-06T01:04:49;10.13;;;6.33;;
7831;SDS011;3961;42.058;25.586;2024-01-06T01:07:14;11.33;;;6.97;;
7831;SDS011;3961;42.058;25.586;2024-01-06T01:09:41;9.23;;;6.47;;
7831;SDS011;3961;42.058;25.586;2024-01-06T01:12:06;12.40;;;7.13;;
7831;SDS011;3961;42.058;25.586;2024-01-06T01:14:32;9.67;;;6.80;;
7831;SDS011;3961;42.058;25.586;2024-01-06T01:16:57;12.40;;;7.33;;
7831;SDS011;3961;42.058;25.586;2024-01-06T01:19:23;9.17;;;6.33;;
7831;SDS011;3961;42.058;25.586;2024-01-06T01:21:48;8.70;;;6.37;;
7831;SDS011;3961;42.058;25.586;2024-01-06T01:24:14;12.67;;;7.07;;
7831;SDS011;3961;42.058;25.586;2024-01-06T01:26:39;11.37;;;6.53;;
7831;SDS011;3961;42.058;25.586;2024-01-06T01:29:05;11.17;;;6.30;;
7831;SDS011;3961;42.058;25.586;2024-01-06T01:31:30;9.63;;;6.77;;
7831;SDS011;3961;42.058;25.586;2024-01-06T01:33:56;10.80;;;6.73;;
7831;SDS011;3961;42.058;25.586;2024-01-06T01:36:21;16.87;;;7.03;;
7831;SDS011;3961;42.058;25.586;2024-01-06T01:38:47;9.90;;;6.20;;
7831;SDS011;3961;42.058;25.586;2024-01-06T01:41:12;8.43;;;6.07;;
7831;SDS011;3961;42.058;25.586;2024-01-06T01:43:38;10.40;;;6.73;;
7831;SDS011;3961;42.058;25.586;2024-01-06T01:46:03;11.07;;;6.47;;
7831;SDS011;3961;42.058;25.586;2024-01-06T01:48:29;8.80;;;6.00;;
7831;SDS011;3961;42.058;25.586;2024-01-06T01:50:56;11.20;;;6.80;;
7831;SDS011;3961;42.058;25.586;2024-01-06T01:53:21;11.43;;;6.60;;
7831;SDS011;3961;42.058;25.586;2024-01-06T01:55:49;8.53;;;6.57;;
7831;SDS011;3961;42.058;25.586;2024-01-06T01:58:15;8.60;;;6.37;;
7831;SDS011;3961;42.058;25.586;2024-01-06T02:00:41;10.07;;;6.33;;
7831;SDS011;3961;42.058;25.586;2024-01-06T02:03:06;8.90;;;6.07;;
7831;SDS011;3961;42.058;25.586;2024-01-06T02:05:34;9.77;;;6.27;;
7831;SDS011;3961;42.058;25.586;2024-01-06T02:07:59;9.20;;;5.70;;
7831;SDS011;3961;42.058;25.586;2024-01-06T02:10:25;9.80;;;6.10;;
7831;SDS011;3961;42.058;25.586;2024-01-06T02:12:51;12.67;;;5.93;;
7831;SDS011;3961;42.058;25.586;2024-01-06T02:15:17;10.03;;;6.93;;
7831;SDS011;3961;42.058;25.586;2024-01-06T02:17:43;13.73;;;7.53;;
7831;SDS011;3961;42.058;25.586;2024-01-06T02:20:09;10.20;;;7.50;;
7831;SDS011;3961;42.058;25.586;2024-01-06T02:22:37;12.10;;;7.67;;
7831;SDS011;3961;42.058;25.586;2024-01-06T02:25:03;10.00;;;7.10;;
7831;SDS011;3961;42.058;25.586;2024-01-06T02:27:37;11.00;;;6.57;;
7831;SDS011;3961;42.058;25.586;2024-01-06T02:30:06;10.23;;;6.60;;
7831;SDS011;3961;42.058;25.586;2024-01-06T02:32:32;11.53;;;6.03;;
7831;SDS011;3961;42.058;25.586;2024-01-06T02:34:58;9.87;;;6.77;;
7831;SDS011;3961;42.058;25.586;2024-01-06T02:37:23;8.73;;;6.67;;
7831;SDS011;3961;42.058;25.586;2024-01-06T02:39:49;8.90;;;6.30;;
7831;SDS011;3961;42.058;25.586;2024-01-06T02:42:15;9.87;;;6.30;;
7831;SDS011;3961;42.058;25.586;2024-01-06T02:44:40;10.10;;;7.07;;
7831;SDS011;3961;42.058;25.586;2024-01-06T02:47:06;11.83;;;6.60;;
7831;SDS011;3961;42.058;25.586;2024-01-06T02:49:31;7.40;;;5.90;;
7831;SDS011;3961;42.058;25.586;2024-01-06T02:51:56;11.73;;;6.33;;
7831;SDS011;3961;42.058;25.586;2024-01-06T02:54:22;8.63;;;6.00;;
7831;SDS011;3961;42.058;25.586;2024-01-06T02:56:47;12.40;;;6.50;;
7831;SDS011;3961;42.058;25.586;2024-01-06T02:59:13;10.97;;;6.53;;
7831;SDS011;3961;42.058;25.586;2024-01-06T03:01:38;9.97;;;6.37;;
7831;SDS011;3961;42.058;25.586;2024-01-06T03:04:04;11.13;;;6.80;;
7831;SDS011;3961;42.058;25.586;2024-01-06T03:06:29;9.23;;;6.67;;
7831;SDS011;3961;42.058;25.586;2024-01-06T03:08:55;11.30;;;6.10;;
7831;SDS011;3961;42.058;25.586;2024-01-06T03:11:20;9.30;;;6.23;;
7831;SDS011;3961;42.058;25.586;2024-01-06T03:13:46;10.00;;;6.23;;
7831;SDS011;3961;42.058;25.586;2024-01-06T03:16:11;9.13;;;6.23;;
7831;SDS011;3961;42.058;25.586;2024-01-06T03:18:38;9.90;;;6.40;;
7831;SDS011;3961;42.058;25.586;2024-01-06T03:21:03;9.47;;;6.47;;
7831;SDS011;3961;42.058;25.586;2024-01-06T03:23:29;11.57;;;6.83;;
7831;SDS011;3961;42.058;25.586;2024-01-06T03:25:54;11.10;;;6.90;;
7831;SDS011;3961;42.058;25.586;2024-01-06T03:28:19;10.90;;;7.10;;
7831;SDS011;3961;42.058;25.586;2024-01-06T03:30:45;12.23;;;6.40;;
7831;SDS011;3961;42.058;25.586;2024-01-06T03:33:11;10.47;;;6.60;;
7831;SDS011;3961;42.058;25.586;2024-01-06T03:35:37;13.97;;;7.80;;
7831;SDS011;3961;42.058;25.586;2024-01-06T03:38:03;11.87;;;7.10;;
7831;SDS011;3961;42.058;25.586;2024-01-06T03:40:28;11.90;;;6.70;;
7831;SDS011;3961;42.058;25.586;2024-01-06T03:42:54;11.03;;;7.03;;
7831;SDS011;3961;42.058;25.586;2024-01-06T03:45:19;12.23;;;7.13;;
7831;SDS011;3961;42.058;25.586;2024-01-06T03:47:45;10.37;;;7.37;;
7831;SDS011;3961;42.058;25.586;2024-01-06T03:50:11;9.13;;;6.90;;
7831;SDS011;3961;42.058;25.586;2024-01-06T03:52:38;11.80;;;7.20;;
7831;SDS011;3961;42.058;25.586;2024-01-06T03:55:03;9.03;;;6.37;;
7831;SDS011;3961;42.058;25.586;2024-01-06T03:57:30;10.57;;;6.87;;
7831;SDS011;3961;42.058;25.586;2024-01-06T03:59:56;10.60;;;6.57;;
7831;SDS011;3961;42.058;25.586;2024-01-06T04:02:22;12.17;;;6.87;;
7831;SDS011;3961;42.058;25.586;2024-01-06T04:04:49;9.30;;;7.07;;
7831;SDS011;3961;42.058;25.586;2024-01-06T04:07:14;12.00;;;7.80;;
7831;SDS011;3961;42.058;25.586;2024-01-06T04:09:41;8.57;;;6.27;;
7831;SDS011;3961;42.058;25.586;2024-01-06T04:12:08;10.20;;;6.87;;
7831;SDS011;3961;42.058;25.586;2024-01-06T04:14:33;10.83;;;6.43;;
7831;SDS011;3961;42.058;25.586;2024-01-06T04:16:59;12.03;;;6.63;;
7831;SDS011;3961;42.058;25.586;2024-01-06T04:19:24;11.57;;;6.77;;
7831;SDS011;3961;42.058;25.586;2024-01-06T04:21:50;11.97;;;6.50;;
7831;SDS011;3961;42.058;25.586;2024-01-06T04:24:16;9.90;;;6.30;;
7831;SDS011;3961;42.058;25.586;2024-01-06T04:26:41;7.73;;;5.87;;
7831;SDS011;3961;42.058;25.586;2024-01-06T04:29:10;9.10;;;6.20;;
7831;SDS011;3961;42.058;25.586;2024-01-06T04:31:37;10.30;;;6.10;;
7831;SDS011;3961;42.058;25.586;2024-01-06T04:34:03;9.17;;;6.03;;
7831;SDS011;3961;42.058;25.586;2024-01-06T04:36:28;10.47;;;6.60;;
7831;SDS011;3961;42.058;25.586;2024-01-06T04:38:54;11.67;;;6.27;;
7831;SDS011;3961;42.058;25.586;2024-01-06T04:41:20;8.97;;;5.53;;
7831;SDS011;3961;42.058;25.586;2024-01-06T04:43:45;8.60;;;6.50;;
7831;SDS011;3961;42.058;25.586;2024-01-06T04:46:11;11.03;;;6.70;;
7831;SDS011;3961;42.058;25.586;2024-01-06T04:48:37;8.70;;;6.63;;
7831;SDS011;3961;42.058;25.586;2024-01-06T04:51:04;9.93;;;6.40;;
7831;SDS011;3961;42.058;25.586;2024-01-06T04:53:31;9.40;;;6.13;;
7831;SDS011;3961;42.058;25.586;2024-01-06T04:55:56;9.40;;;6.27;;
7831;SDS011;3961;42.058;25.586;2024-01-06T04:58:22;9.33;;;6.37;;
7831;SDS011;3961;42.058;25.586;2024-01-06T05:00:47;13.13;;;6.80;;
7831;SDS011;3961;42.058;25.586;2024-01-06T05:03:13;12.00;;;6.87;;
7831;SDS011;3961;42.058;25.586;2024-01-06T05:05:38;14.60;;;8.33;;
7831;SDS011;3961;42.058;25.586;2024-01-06T05:08:04;10.37;;;7.03;;
7831;SDS011;3961;42.058;25.586;2024-01-06T05:10:30;12.27;;;8.03;;
7831;SDS011;3961;42.058;25.586;2024-01-06T05:12:55;11.30;;;7.73;;
7831;SDS011;3961;42.058;25.586;2024-01-06T05:15:21;12.00;;;7.97;;
7831;SDS011;3961;42.058;25.586;2024-01-06T05:17:46;11.80;;;8.10;;
7831;SDS011;3961;42.058;25.586;2024-01-06T05:20:12;12.23;;;7.93;;
7831;SDS011;3961;42.058;25.586;2024-01-06T05:22:38;15.53;;;8.07;;
7831;SDS011;3961;42.058;25.586;2024-01-06T05:25:03;13.23;;;8.40;;
7831;SDS011;3961;42.058;25.586;2024-01-06T05:27:29;11.83;;;7.97;;
7831;SDS011;3961;42.058;25.586;2024-01-06T05:29:54;13.40;;;8.10;;
7831;SDS011;3961;42.058;25.586;2024-01-06T05:32:20;12.70;;;8.43;;
7831;SDS011;3961;42.058;25.586;2024-01-06T08:23:43;20.30;;;10.77;;
7831;SDS011;3961;42.058;25.586;2024-01-06T08:26:08;18.80;;;10.10;;
7831;SDS011;3961;42.058;25.586;2024-01-06T08:28:36;17.43;;;10.30;;
7831;SDS011;3961;42.058;25.586;2024-01-06T08:31:02;18.47;;;10.40;;
7831;SDS011;3961;42.058;25.586;2024-01-06T08:33:27;16.60;;;8.40;;
7831;SDS011;3961;42.058;25.586;2024-01-06T08:35:53;15.33;;;10.37;;
7831;SDS011;3961;42.058;25.586;2024-01-06T08:38:19;12.90;;;10.07;;
7831;SDS011;3961;42.058;25.586;2024-01-06T08:40:45;17.50;;;10.80;;
7831;SDS011;3961;42.058;25.586;2024-01-06T08:43:13;12.97;;;10.33;;
7831;SDS011;3961;42.058;25.586;2024-01-06T08:45:38;17.67;;;11.83;;
7831;SDS011;3961;42.058;25.586;2024-01-06T08:48:04;15.40;;;10.50;;
7831;SDS011;3961;42.058;25.586;2024-01-06T08:50:30;23.60;;;11.77;;
7831;SDS011;3961;42.058;25.586;2024-01-06T08:52:55;14.30;;;10.77;;
7831;SDS011;3961;42.058;25.586;2024-01-06T08:55:21;16.07;;;10.83;;
7831;SDS011;3961;42.058;25.586;2024-01-06T08:57:46;18.33;;;11.73;;
7831;SDS011;3961;42.058;25.586;2024-01-06T09:00:12;17.10;;;11.50;;
7831;SDS011;3961;42.058;25.586;2024-01-06T09:02:37;17.07;;;11.63;;
7831;SDS011;3961;42.058;25.586;2024-01-06T09:05:03;20.07;;;12.67;;
7831;SDS011;3961;42.058;25.586;2024-01-06T09:07:29;26.87;;;15.50;;
7831;SDS011;3961;42.058;25.586;2024-01-06T09:09:55;28.30;;;16.17;;
7831;SDS011;3961;42.058;25.586;2024-01-06T09:12:20;36.77;;;21.30;;
7831;SDS011;3961;42.058;25.586;2024-01-06T09:14:46;23.90;;;13.30;;
7831;SDS011;3961;42.058;25.586;2024-01-06T09:17:13;21.53;;;15.63;;
7831;SDS011;3961;42.058;25.586;2024-01-06T09:19:38;28.13;;;16.13;;
7831;SDS011;3961;42.058;25.586;2024-01-06T09:22:04;23.70;;;16.93;;
7831;SDS011;3961;42.058;25.586;2024-01-06T09:24:29;21.53;;;17.00;;
7831;SDS011;3961;42.058;25.586;2024-01-06T09:26:55;22.73;;;16.93;;
7831;SDS011;3961;42.058;25.586;2024-01-06T09:29:20;24.77;;;17.07;;
7831;SDS011;3961;42.058;25.586;2024-01-06T09:31:46;23.43;;;16.70;;
7831;SDS011;3961;42.058;25.586;2024-01-06T09:34:12;25.70;;;17.37;;
7831;SDS011;3961;42.058;25.586;2024-01-06T09:36:37;26.57;;;17.20;;
7831;SDS011;3961;42.058;25.586;2024-01-06T09:39:03;24.50;;;14.53;;
7831;SDS011;3961;42.058;25.586;2024-01-06T09:41:29;18.50;;;13.13;;
7831;SDS011;3961;42.058;25.586;2024-01-06T09:43:56;21.57;;;11.97;;
7831;SDS011;3961;42.058;25.586;2024-01-06T09:46:25;16.83;;;11.50;;
7831;SDS011;3961;42.058;25.586;2024-01-06T09:48:52;23.03;;;12.23;;
7831;SDS011;3961;42.058;25.586;2024-01-06T09:51:18;15.77;;;10.93;;
7831;SDS011;3961;42.058;25.586;2024-01-06T09:53:49;21.07;;;11.33;;
7831;SDS011;3961;42.058;25.586;2024-01-06T09:56:21;26.43;;;11.27;;
7831;SDS011;3961;42.058;25.586;2024-01-06T09:58:50;15.27;;;10.50;;
7831;SDS011;3961;42.058;25.586;2024-01-06T10:01:17;18.80;;;10.90;;
7831;SDS011;3961;42.058;25.586;2024-01-06T10:03:43;17.30;;;9.73;;
7831;SDS011;3961;42.058;25.586;2024-01-06T10:06:11;15.37;;;9.77;;
7831;SDS011;3961;42.058;25.586;2024-01-06T10:08:38;19.80;;;10.43;;
7831;SDS011;3961;42.058;25.586;2024-01-06T10:11:06;18.03;;;10.57;;
7831;SDS011;3961;42.058;25.586;2024-01-06T10:13:33;17.67;;;9.97;;
7831;SDS011;3961;42.058;25.586;2024-01-06T10:15:58;18.03;;;10.13;;
7831;SDS011;3961;42.058;25.586;2024-01-06T10:18:25;18.27;;;10.17;;
7831;SDS011;3961;42.058;25.586;2024-01-06T10:20:55;19.23;;;9.87;;
7831;SDS011;3961;42.058;25.586;2024-01-06T10:23:22;14.37;;;9.97;;
7831;SDS011;3961;42.058;25.586;2024-01-06T10:25:51;17.63;;;10.47;;
7831;SDS011;3961;42.058;25.586;2024-01-06T10:28:23;23.83;;;11.80;;
7831;SDS011;3961;42.058;25.586;2024-01-06T10:30:51;17.60;;;10.70;;
7831;SDS011;3961;42.058;25.586;2024-01-06T10:33:22;25.20;;;10.30;;
7831;SDS011;3961;42.058;25.586;2024-01-06T10:35:48;17.17;;;9.97;;
7831;SDS011;3961;42.058;25.586;2024-01-06T10:38:14;17.73;;;10.40;;
7831;SDS011;3961;42.058;25.586;2024-01-06T10:40:58;15.60;;;10.10;;
7831;SDS011;3961;42.058;25.586;2024-01-06T10:43:26;14.90;;;9.20;;
7831;SDS011;3961;42.058;25.586;2024-01-06T10:45:56;14.17;;;9.47;;
7831;SDS011;3961;42.058;25.586;2024-01-06T10:48:25;15.43;;;10.17;;
7831;SDS011;3961;42.058;25.586;2024-01-06T10:50:52;22.80;;;12.23;;
7831;SDS011;3961;42.058;25.586;2024-01-06T10:53:20;20.87;;;12.43;;
7831;SDS011;3961;42.058;25.586;2024-01-06T10:55:49;21.13;;;12.53;;
7831;SDS011;3961;42.058;25.586;2024-01-06T10:58:17;22.03;;;12.37;;
7831;SDS011;3961;42.058;25.586;2024-01-06T11:00:43;19.37;;;11.53;;
7831;SDS011;3961;42.058;25.586;2024-01-06T11:03:09;13.97;;;10.13;;
7831;SDS011;3961;42.058;25.586;2024-01-06T11:05:35;15.87;;;10.13;;
7831;SDS011;3961;42.058;25.586;2024-01-06T11:08:05;17.77;;;12.40;;
7831;SDS011;3961;42.058;25.586;2024-01-06T11:10:31;13.67;;;9.33;;
7831;SDS011;3961;42.058;25.586;2024-01-06T11:13:08;12.20;;;9.70;;
7831;SDS011;3961;42.058;25.586;2024-01-06T11:15:41;17.13;;;9.90;;
7831;SDS011;3961;42.058;25.586;2024-01-06T11:18:07;14.13;;;9.50;;
7831;SDS011;3961;42.058;25.586;2024-01-06T11:20:33;20.60;;;10.37;;
7831;SDS011;3961;42.058;25.586;2024-01-06T11:23:17;13.87;;;9.30;;
7831;SDS011;3961;42.058;25.586;2024-01-06T11:25:45;12.67;;;9.97;;
7831;SDS011;3961;42.058;25.586;2024-01-06T11:28:11;13.30;;;9.97;;
7831;SDS011;3961;42.058;25.586;2024-01-06T11:30:37;15.27;;;9.63;;
7831;SDS011;3961;42.058;25.586;2024-01-06T11:33:04;12.43;;;9.20;;
7831;SDS011;3961;42.058;25.586;2024-01-06T11:35:30;11.30;;;8.50;;
7831;SDS011;3961;42.058;25.586;2024-01-06T11:37:57;18.23;;;11.43;;
7831;SDS011;3961;42.058;25.586;2024-01-06T11:40:30;15.20;;;9.80;;
7831;SDS011;3961;42.058;25.586;2024-01-06T11:42:58;14.40;;;9.93;;
7831;SDS011;3961;42.058;25.586;2024-01-06T11:45:27;14.77;;;10.13;;
7831;SDS011;3961;42.058;25.586;2024-01-06T11:47:57;17.27;;;10.60;;
7831;SDS011;3961;42.058;25.586;2024-01-06T11:50:25;15.23;;;9.93;;
7831;SDS011;3961;42.058;25.586;2024-01-06T11:52:52;15.63;;;10.13;;
7831;SDS011;3961;42.058;25.586;2024-01-06T11:55:18;14.87;;;10.17;;
7831;SDS011;3961;42.058;25.586;2024-01-06T11:57:45;14.43;;;9.93;;
7831;SDS011;3961;42.058;25.586;2024-01-06T12:00:11;18.70;;;11.60;;
7831;SDS011;3961;42.058;25.586;2024-01-06T12:02:39;22.57;;;12.27;;
7831;SDS011;3961;42.058;25.586;2024-01-06T12:05:05;23.50;;;12.53;;
7831;SDS011;3961;42.058;25.586;2024-01-06T12:07:37;23.00;;;12.00;;
7831;SDS011;3961;42.058;25.586;2024-01-06T12:10:03;17.53;;;12.37;;
7831;SDS011;3961;42.058;25.586;2024-01-06T12:12:29;18.90;;;12.87;;
7831;SDS011;3961;42.058;25.586;2024-01-06T12:14:54;18.47;;;13.47;;
7831;SDS011;3961;42.058;25.586;2024-01-06T12:17:20;25.70;;;13.87;;
7831;SDS011;3961;42.058;25.586;2024-01-06T12:19:47;18.77;;;13.60;;
7831;SDS011;3961;42.058;25.586;2024-01-06T12:22:14;18.10;;;12.97;;
7831;SDS011;3961;42.058;25.586;2024-01-06T12:24:41;15.03;;;11.63;;
7831;SDS011;3961;42.058;25.586;2024-01-06T12:27:10;24.63;;;13.33;;
7831;SDS011;3961;42.058;25.586;2024-01-06T12:29:42;25.53;;;12.77;;
7831;SDS011;3961;42.058;25.586;2024-01-06T12:32:09;21.87;;;12.67;;
7831;SDS011;3961;42.058;25.586;2024-01-06T12:34:35;17.40;;;12.47;;
7831;SDS011;3961;42.058;25.586;2024-01-06T12:37:01;21.43;;;15.13;;
7831;SDS011;3961;42.058;25.586;2024-01-06T12:39:28;18.93;;;13.17;;
7831;SDS011;3961;42.058;25.586;2024-01-06T12:41:54;18.80;;;12.67;;
7831;SDS011;3961;42.058;25.586;2024-01-06T12:44:20;19.40;;;13.93;;
7831;SDS011;3961;42.058;25.586;2024-01-06T12:46:46;26.37;;;14.67;;
7831;SDS011;3961;42.058;25.586;2024-01-06T12:49:12;25.33;;;15.83;;
7831;SDS011;3961;42.058;25.586;2024-01-06T12:51:38;25.07;;;16.73;;
7831;SDS011;3961;42.058;25.586;2024-01-06T12:54:04;24.37;;;15.83;;
7831;SDS011;3961;42.058;25.586;2024-01-06T12:56:29;22.33;;;15.63;;
7831;SDS011;3961;42.058;25.586;2024-01-06T12:58:55;23.17;;;15.90;;
7831;SDS011;3961;42.058;25.586;2024-01-06T13:01:21;22.53;;;15.33;;
7831;SDS011;3961;42.058;25.586;2024-01-06T13:03:47;23.73;;;15.10;;
7831;SDS011;3961;42.058;25.586;2024-01-06T13:06:13;24.63;;;15.57;;
7831;SDS011;3961;42.058;25.586;2024-01-06T13:08:41;24.33;;;16.10;;
7831;SDS011;3961;42.058;25.586;2024-01-06T13:11:07;21.40;;;14.87;;
7831;SDS011;3961;42.058;25.586;2024-01-06T13:13:33;25.70;;;15.70;;
7831;SDS011;3961;42.058;25.586;2024-01-06T13:15:59;28.90;;;16.50;;
7831;SDS011;3961;42.058;25.586;2024-01-06T13:18:27;21.27;;;15.33;;
7831;SDS011;3961;42.058;25.586;2024-01-06T13:20:53;26.97;;;15.93;;
7831;SDS011;3961;42.058;25.586;2024-01-06T13:23:19;21.83;;;14.70;;
7831;SDS011;3961;42.058;25.586;2024-01-06T13:25:44;23.40;;;15.23;;
7831;SDS011;3961;42.058;25.586;2024-01-06T13:28:10;22.10;;;14.37;;
7831;SDS011;3961;42.058;25.586;2024-01-06T13:30:37;24.40;;;15.20;;
7831;SDS011;3961;42.058;25.586;2024-01-06T13:33:04;21.10;;;14.47;;
7831;SDS011;3961;42.058;25.586;2024-01-06T13:35:30;21.60;;;14.90;;
7831;SDS011;3961;42.058;25.586;2024-01-06T13:37:56;21.10;;;14.03;;
7831;SDS011;3961;42.058;25.586;2024-01-06T13:40:22;27.47;;;15.10;;
7831;SDS011;3961;42.058;25.586;2024-01-06T13:42:48;21.10;;;14.90;;
7831;SDS011;3961;42.058;25.586;2024-01-06T13:45:15;26.40;;;15.87;;
7831;SDS011;3961;42.058;25.586;2024-01-06T13:47:41;25.90;;;15.87;;
7831;SDS011;3961;42.058;25.586;2024-01-06T13:50:10;25.67;;;15.50;;
7831;SDS011;3961;42.058;25.586;2024-01-06T13:52:37;25.20;;;15.87;;
7831;SDS011;3961;42.058;25.586;2024-01-06T13:55:03;23.87;;;15.67;;
7831;SDS011;3961;42.058;25.586;2024-01-06T13:57:29;28.83;;;15.80;;
7831;SDS011;3961;42.058;25.586;2024-01-06T13:59:55;24.70;;;16.10;;
7831;SDS011;3961;42.058;25.586;2024-01-06T14:02:22;26.03;;;15.70;;
7831;SDS011;3961;42.058;25.586;2024-01-06T14:04:48;22.50;;;14.60;;
7831;SDS011;3961;42.058;25.586;2024-01-06T14:07:14;24.90;;;15.07;;
7831;SDS011;3961;42.058;25.586;2024-01-06T14:09:40;20.87;;;14.67;;
7831;SDS011;3961;42.058;25.586;2024-01-06T14:12:06;24.00;;;15.47;;
7831;SDS011;3961;42.058;25.586;2024-01-06T14:14:31;23.20;;;15.73;;
7831;SDS011;3961;42.058;25.586;2024-01-06T14:16:57;25.67;;;16.73;;
7831;SDS011;3961;42.058;25.586;2024-01-06T14:19:24;25.53;;;15.47;;
7831;SDS011;3961;42.058;25.586;2024-01-06T14:21:49;26.47;;;15.70;;
7831;SDS011;3961;42.058;25.586;2024-01-06T14:24:16;22.33;;;15.20;;
7831;SDS011;3961;42.058;25.586;2024-01-06T14:26:54;25.93;;;16.00;;
7831;SDS011;3961;42.058;25.586;2024-01-06T14:29:21;23.13;;;15.27;;
7831;SDS011;3961;42.058;25.586;2024-01-06T14:31:46;31.37;;;14.83;;
7831;SDS011;3961;42.058;25.586;2024-01-06T14:34:12;27.70;;;15.90;;
7831;SDS011;3961;42.058;25.586;2024-01-06T14:36:38;25.97;;;16.50;;
7831;SDS011;3961;42.058;25.586;2024-01-06T14:39:04;25.07;;;15.67;;
7831;SDS011;3961;42.058;25.586;2024-01-06T14:41:32;27.70;;;16.97;;
7831;SDS011;3961;42.058;25.586;2024-01-06T14:43:58;29.03;;;17.10;;
7831;SDS011;3961;42.058;25.586;2024-01-06T14:46:24;26.87;;;17.03;;
7831;SDS011;3961;42.058;25.586;2024-01-06T14:48:49;28.03;;;16.43;;
7831;SDS011;3961;42.058;25.586;2024-01-06T14:51:17;24.80;;;16.93;;
7831;SDS011;3961;42.058;25.586;2024-01-06T14:53:43;26.97;;;16.50;;
7831;SDS011;3961;42.058;25.586;2024-01-06T14:56:09;27.37;;;18.03;;
7831;SDS011;3961;42.058;25.586;2024-01-06T14:58:35;32.80;;;18.43;;
7831;SDS011;3961;42.058;25.586;2024-01-06T15:01:01;31.23;;;18.80;;
7831;SDS011;3961;42.058;25.586;2024-01-06T15:03:26;27.53;;;17.93;;
7831;SDS011;3961;42.058;25.586;2024-01-06T15:05:52;37.20;;;19.00;;
7831;SDS011;3961;42.058;25.586;2024-01-06T15:08:18;31.80;;;19.97;;
7831;SDS011;3961;42.058;25.586;2024-01-06T15:10:43;29.60;;;19.10;;
7831;SDS011;3961;42.058;25.586;2024-01-06T15:13:10;35.63;;;20.67;;
7831;SDS011;3961;42.058;25.586;2024-01-06T15:15:35;35.93;;;24.33;;
7831;SDS011;3961;42.058;25.586;2024-01-06T15:18:01;42.53;;;25.07;;
7831;SDS011;3961;42.058;25.586;2024-01-06T15:20:27;37.43;;;21.53;;
7831;SDS011;3961;42.058;25.586;2024-01-06T15:22:53;38.63;;;23.83;;
7831;SDS011;3961;42.058;25.586;2024-01-06T15:25:19;29.57;;;19.67;;
7831;SDS011;3961;42.058;25.586;2024-01-06T15:27:44;77.80;;;44.63;;
7831;SDS011;3961;42.058;25.586;2024-01-06T15:30:10;53.10;;;31.93;;
7831;SDS011;3961;42.058;25.586;2024-01-06T15:32:36;35.80;;;20.23;;
7831;SDS011;3961;42.058;25.586;2024-01-06T15:35:02;36.47;;;19.70;;
7831;SDS011;3961;42.058;25.586;2024-01-06T15:37:32;34.90;;;20.33;;
7831;SDS011;3961;42.058;25.586;2024-01-06T15:39:57;44.57;;;26.10;;
7831;SDS011;3961;42.058;25.586;2024-01-06T15:42:23;58.57;;;30.17;;
7831;SDS011;3961;42.058;25.586;2024-01-06T15:44:48;38.37;;;22.93;;
7831;SDS011;3961;42.058;25.586;2024-01-06T15:47:14;62.80;;;36.40;;
7831;SDS011;3961;42.058;25.586;2024-01-06T15:49:39;49.00;;;28.53;;
7831;SDS011;3961;42.058;25.586;2024-01-06T15:52:05;37.23;;;23.07;;
7831;SDS011;3961;42.058;25.586;2024-01-06T15:54:33;56.60;;;26.37;;
7831;SDS011;3961;42.058;25.586;2024-01-06T15:56:58;53.73;;;30.03;;
7831;SDS011;3961;42.058;25.586;2024-01-06T15:59:24;53.30;;;28.57;;
7831;SDS011;3961;42.058;25.586;2024-01-06T16:01:51;51.37;;;30.00;;
7831;SDS011;3961;42.058;25.586;2024-01-06T16:04:16;50.13;;;28.73;;
7831;SDS011;3961;42.058;25.586;2024-01-06T16:06:42;47.03;;;27.20;;
7831;SDS011;3961;42.058;25.586;2024-01-06T16:09:11;46.80;;;25.93;;
7831;SDS011;3961;42.058;25.586;2024-01-06T16:11:39;45.67;;;24.10;;
7831;SDS011;3961;42.058;25.586;2024-01-06T16:14:05;43.70;;;25.77;;
7831;SDS011;3961;42.058;25.586;2024-01-06T16:16:30;44.90;;;23.37;;
7831;SDS011;3961;42.058;25.586;2024-01-06T16:18:56;40.70;;;23.27;;
7831;SDS011;3961;42.058;25.586;2024-01-06T16:21:22;37.90;;;21.00;;
7831;SDS011;3961;42.058;25.586;2024-01-06T16:23:48;34.47;;;20.27;;
7831;SDS011;3961;42.058;25.586;2024-01-06T16:26:14;41.23;;;21.03;;
7831;SDS011;3961;42.058;25.586;2024-01-06T16:28:40;31.20;;;18.57;;
7831;SDS011;3961;42.058;25.586;2024-01-06T16:31:05;36.30;;;18.70;;
7831;SDS011;3961;42.058;25.586;2024-01-06T16:33:31;26.60;;;14.63;;
7831;SDS011;3961;42.058;25.586;2024-01-06T16:35:56;32.30;;;16.90;;
7831;SDS011;3961;42.058;25.586;2024-01-06T16:38:22;25.63;;;15.77;;
7831;SDS011;3961;42.058;25.586;2024-01-06T16:40:47;35.37;;;18.00;;
7831;SDS011;3961;42.058;25.586;2024-01-06T16:43:13;35.50;;;19.87;;
7831;SDS011;3961;42.058;25.586;2024-01-06T16:45:38;31.10;;;16.43;;
7831;SDS011;3961;42.058;25.586;2024-01-06T16:48:04;28.03;;;18.30;;
7831;SDS011;3961;42.058;25.586;2024-01-06T16:50:31;31.67;;;19.43;;
7831;SDS011;3961;42.058;25.586;2024-01-06T16:52:57;42.87;;;22.43;;
7831;SDS011;3961;42.058;25.586;2024-01-06T16:55:22;25.33;;;14.90;;
7831;SDS011;3961;42.058;25.586;2024-01-06T16:57:48;34.17;;;20.00;;
7831;SDS011;3961;42.058;25.586;2024-01-06T17:00:13;28.83;;;15.20;;
7831;SDS011;3961;42.058;25.586;2024-01-06T17:02:39;21.50;;;13.47;;
7831;SDS011;3961;42.058;25.586;2024-01-06T17:05:05;15.43;;;8.10;;
7831;SDS011;3961;42.058;25.586;2024-01-06T17:07:33;21.37;;;11.83;;
7831;SDS011;3961;42.058;25.586;2024-01-06T17:10:00;24.53;;;13.53;;
7831;SDS011;3961;42.058;25.586;2024-01-06T17:12:28;16.33;;;7.20;;
7831;SDS011;3961;42.058;25.586;2024-01-06T17:14:54;16.30;;;9.87;;
7831;SDS011;3961;42.058;25.586;2024-01-06T17:17:19;13.63;;;6.60;;
7831;SDS011;3961;42.058;25.586;2024-01-06T17:19:45;11.53;;;6.37;;
7831;SDS011;3961;42.058;25.586;2024-01-06T17:22:10;13.33;;;5.80;;
7831;SDS011;3961;42.058;25.586;2024-01-06T17:24:36;11.20;;;3.80;;
7831;SDS011;3961;42.058;25.586;2024-01-06T17:27:01;9.73;;;3.70;;